createdAt,value
2023-01-13T00:02:59.613Z,16.33
2023-01-13T00:06:05.300Z,11.25
2023-01-13T00:09:13.416Z,16.85
2023-01-13T00:12:18.737Z,14.93
2023-01-13T00:15:24.469Z,10.43
2023-01-13T00:18:29.970Z,14.10
2023-01-13T00:21:36.085Z,11.15
2023-01-13T00:24:43.736Z,9.95
2023-01-13T00:27:49.205Z,12.70
2023-01-13T00:30:56.532Z,7.90
2023-01-13T00:34:02.963Z,10.53
2023-01-13T00:37:08.477Z,13.43
2023-01-13T00:40:17.385Z,11.55
2023-01-13T00:43:23.168Z,8.57
2023-01-13T00:46:28.791Z,15.25
2023-01-13T00:49:34.295Z,15.45
2023-01-13T00:52:41.994Z,14.93
2023-01-13T00:55:50.064Z,9.38
2023-01-13T00:58:57.408Z,10.20
2023-01-13T01:02:02.830Z,9.73
2023-01-13T01:05:09.226Z,9.82
2023-01-13T01:08:14.901Z,10.60
2023-01-13T01:11:24.411Z,13.07
2023-01-13T01:14:30.303Z,13.25
2023-01-13T01:17:35.631Z,12.88
2023-01-13T01:20:40.727Z,11.65
2023-01-13T01:23:46.486Z,13.65
2023-01-13T01:26:54.363Z,9.27
2023-01-13T01:30:00.097Z,10.80
2023-01-13T01:33:05.890Z,12.98
2023-01-13T01:36:12.614Z,14.07
2023-01-13T01:39:17.645Z,8.30
2023-01-13T01:42:38.305Z,11.77
2023-01-13T01:45:44.172Z,9.45
2023-01-13T01:48:49.609Z,11.07
2023-01-13T01:51:57.172Z,9.73
2023-01-13T01:55:05.209Z,12.27
2023-01-13T01:58:14.773Z,10.50
2023-01-13T02:01:19.972Z,11.00
2023-01-13T02:04:27.772Z,8.32
2023-01-13T02:07:34.624Z,12.10
2023-01-13T02:10:39.947Z,10.18
2023-01-13T02:13:45.367Z,12.63
2023-01-13T02:16:56.551Z,12.35
2023-01-13T02:20:11.748Z,8.90
2023-01-13T02:23:44.500Z,14.32
2023-01-13T02:26:58.577Z,8.50
2023-01-13T02:30:23.172Z,9.48
2023-01-13T02:33:40.089Z,10.13
2023-01-13T02:36:50.994Z,9.40
2023-01-13T02:39:59.027Z,12.05
2023-01-13T02:43:20.530Z,12.30
2023-01-13T02:46:31.198Z,11.70
2023-01-13T02:49:39.400Z,9.57
2023-01-13T02:52:47.245Z,9.07
2023-01-13T02:55:54.153Z,11.98
2023-01-13T02:59:00.856Z,9.13
2023-01-13T03:02:09.776Z,10.35
2023-01-13T03:05:17.337Z,10.05
2023-01-13T03:08:43.123Z,14.45
2023-01-13T03:11:51.295Z,11.15
2023-01-13T03:15:00.009Z,8.50
2023-01-13T03:18:12.275Z,11.88
2023-01-13T03:21:19.228Z,14.52
2023-01-13T03:24:25.989Z,11.77
2023-01-13T03:27:33.976Z,9.55
2023-01-13T03:30:43.415Z,10.25
2023-01-13T03:33:53.801Z,15.63
2023-01-13T03:37:00.531Z,11.13
2023-01-13T03:40:07.244Z,7.93
2023-01-13T03:43:27.802Z,11.63
2023-01-13T03:46:37.472Z,17.45
2023-01-13T03:49:47.934Z,14.20
2023-01-13T03:52:54.946Z,9.40
2023-01-13T03:56:02.834Z,12.68
2023-01-13T03:59:08.895Z,9.73
2023-01-13T04:02:17.575Z,11.52
2023-01-13T04:05:26.451Z,8.65
2023-01-13T04:08:32.977Z,9.45
2023-01-13T04:11:40.951Z,11.15
2023-01-13T04:14:47.014Z,11.18
2023-01-13T04:17:53.003Z,12.23
2023-01-13T04:21:01.578Z,13.20
2023-01-13T04:24:06.873Z,15.15
2023-01-13T04:27:12.443Z,10.40
2023-01-13T04:30:18.402Z,8.25
2023-01-13T04:33:24.313Z,9.32
2023-01-13T04:36:32.430Z,9.45
2023-01-13T04:39:38.131Z,8.07
2023-01-13T04:42:43.164Z,10.48
2023-01-13T04:45:48.745Z,10.40
2023-01-13T04:48:54.232Z,11.82
2023-01-13T04:52:04.135Z,12.00
2023-01-13T04:55:10.629Z,8.75
2023-01-13T04:58:15.733Z,8.40
2023-01-13T05:01:21.970Z,13.25
2023-01-13T05:04:27.618Z,9.50
2023-01-13T05:07:35.818Z,8.85
2023-01-13T05:10:40.861Z,9.32
2023-01-13T05:14:07.725Z,8.98
2023-01-13T05:17:13.520Z,12.05
2023-01-13T05:20:19.296Z,10.27
2023-01-13T05:23:39.450Z,10.77
2023-01-13T05:26:44.962Z,10.43
2023-01-13T05:29:50.349Z,8.38
2023-01-13T05:32:56.043Z,13.13
2023-01-13T05:36:06.076Z,9.75
2023-01-13T05:39:14.267Z,7.50
2023-01-13T05:42:31.686Z,12.13
2023-01-13T05:45:37.283Z,12.40
2023-01-13T05:48:43.816Z,11.60
2023-01-13T05:51:49.326Z,10.73
2023-01-13T05:54:56.967Z,12.32
2023-01-13T05:58:02.377Z,11.68
2023-01-13T06:01:08.849Z,18.50
2023-01-13T06:04:14.163Z,9.57
2023-01-13T06:07:19.618Z,10.57
2023-01-13T06:10:28.062Z,9.93
2023-01-13T06:13:33.160Z,9.35
2023-01-13T06:16:39.075Z,17.15
2023-01-13T06:19:44.456Z,12.75
2023-01-13T06:22:53.516Z,9.90
2023-01-13T06:26:04.899Z,9.32
2023-01-13T06:29:10.462Z,11.85
2023-01-13T06:32:18.018Z,11.25
2023-01-13T06:35:25.394Z,9.45
2023-01-13T06:38:32.279Z,12.23
2023-01-13T06:41:53.398Z,12.02
2023-01-13T06:44:58.900Z,12.88
2023-01-13T06:48:04.908Z,10.73
2023-01-13T06:51:10.271Z,12.10
2023-01-13T06:54:15.491Z,12.60
2023-01-13T06:57:23.674Z,10.55
2023-01-13T07:00:29.235Z,11.65
2023-01-13T07:03:35.030Z,7.30
2023-01-13T07:06:40.329Z,11.40
2023-01-13T07:09:45.681Z,10.80
2023-01-13T07:13:05.843Z,9.57
2023-01-13T07:16:12.169Z,9.23
2023-01-13T07:19:23.412Z,11.27
2023-01-13T07:22:28.949Z,10.38
2023-01-13T07:25:33.964Z,13.13
2023-01-13T07:28:42.538Z,15.15
2023-01-13T07:31:49.960Z,9.50
2023-01-13T07:34:55.985Z,8.77
2023-01-13T07:38:01.142Z,9.18
2023-01-13T07:41:27.159Z,10.70
2023-01-13T07:44:32.671Z,11.32
2023-01-13T07:47:38.063Z,10.10
2023-01-13T07:50:44.239Z,8.82
2023-01-13T07:53:50.269Z,12.18
2023-01-13T07:56:55.717Z,8.32
2023-01-13T08:00:03.985Z,8.10
2023-01-13T08:03:10.645Z,12.48
2023-01-13T08:06:16.876Z,7.80
2023-01-13T08:09:22.116Z,9.10
2023-01-13T08:12:39.817Z,12.38
2023-01-13T08:16:02.330Z,12.35
2023-01-13T08:19:08.073Z,10.27
2023-01-13T08:22:13.126Z,14.30
2023-01-13T08:25:18.851Z,10.63
2023-01-13T08:28:24.374Z,11.48
2023-01-13T08:31:32.444Z,10.68
2023-01-13T08:34:39.252Z,11.45
2023-01-13T08:37:44.779Z,14.40
2023-01-13T08:40:50.228Z,11.40
2023-01-13T08:43:56.917Z,11.88
2023-01-13T08:47:05.306Z,11.60
2023-01-13T08:53:15.932Z,10.57
2023-01-13T08:56:21.757Z,10.18
2023-01-13T08:59:27.048Z,10.18
2023-01-13T09:02:35.077Z,11.02
2023-01-13T09:05:40.372Z,8.07
2023-01-13T09:08:46.282Z,11.23
2023-01-13T09:12:04.526Z,11.93
2023-01-13T09:15:10.532Z,12.75
2023-01-13T09:18:18.443Z,12.82
2023-01-13T09:21:24.921Z,10.88
2023-01-13T09:24:30.494Z,12.88
2023-01-13T09:27:36.103Z,12.85
2023-01-13T09:30:41.208Z,14.82
2023-01-13T09:34:01.953Z,11.73
2023-01-13T09:37:08.368Z,13.82
2023-01-13T09:40:18.016Z,16.02
2023-01-13T09:43:36.808Z,11.05
2023-01-13T09:46:48.171Z,13.07
2023-01-13T09:49:57.399Z,17.38
2023-01-13T09:53:03.880Z,12.25
2023-01-13T09:56:11.673Z,16.17
2023-01-13T09:59:18.507Z,13.13
2023-01-13T10:02:30.030Z,12.95
2023-01-13T10:05:39.599Z,16.13
2023-01-13T10:08:46.392Z,12.75
2023-01-13T10:12:05.015Z,15.38
2023-01-13T10:15:16.930Z,16.85
2023-01-13T10:18:25.118Z,15.82
2023-01-13T10:21:54.271Z,9.15
2023-01-13T10:25:12.213Z,16.60
2023-01-13T10:28:19.400Z,15.80
2023-01-13T10:31:25.147Z,12.23
2023-01-13T10:34:31.339Z,13.73
2023-01-13T10:37:36.381Z,10.55
2023-01-13T10:40:50.332Z,10.93
2023-01-13T10:44:04.680Z,12.82
2023-01-13T10:47:21.497Z,10.50
2023-01-13T10:50:30.250Z,13.65
2023-01-13T10:53:36.535Z,12.52
2023-01-13T10:56:45.547Z,12.90
2023-01-13T10:59:51.448Z,12.57
2023-01-13T11:03:08.784Z,14.57
2023-01-13T11:06:22.476Z,11.55
2023-01-13T11:09:28.498Z,11.55
2023-01-13T11:12:37.143Z,10.85
2023-01-13T11:15:44.192Z,12.25
2023-01-13T11:19:02.836Z,14.43
2023-01-13T11:22:09.702Z,12.57
2023-01-13T11:25:18.467Z,23.10
2023-01-13T11:28:38.819Z,12.13
2023-01-13T11:31:50.658Z,13.98
2023-01-13T11:34:58.824Z,9.82
2023-01-13T11:41:12.186Z,11.75
2023-01-13T11:44:20.995Z,10.35
2023-01-13T11:47:30.059Z,10.40
2023-01-13T11:50:38.076Z,10.38
2023-01-13T11:53:53.206Z,15.25
2023-01-13T11:57:19.484Z,11.10
2023-01-13T12:00:36.568Z,14.32
2023-01-13T12:03:46.134Z,13.25
2023-01-13T12:06:56.000Z,12.25
2023-01-13T12:10:10.391Z,12.90
2023-01-13T12:13:24.612Z,11.77
2023-01-13T12:16:31.815Z,13.80
2023-01-13T12:19:39.967Z,11.55
2023-01-13T12:22:46.940Z,13.60
2023-01-13T12:25:54.328Z,12.63
2023-01-13T12:29:01.163Z,16.00
2023-01-13T12:32:08.037Z,11.77
2023-01-13T12:35:37.964Z,13.80
2023-01-13T12:38:49.489Z,10.45
2023-01-13T12:42:09.176Z,13.95
2023-01-13T12:45:24.999Z,14.77
2023-01-13T12:48:55.454Z,17.52
2023-01-13T12:52:15.772Z,11.68
2023-01-13T12:55:24.501Z,14.40
2023-01-13T12:58:31.446Z,12.90
2023-01-13T13:01:38.200Z,17.42
2023-01-13T13:04:50.978Z,14.18
2023-01-13T13:08:03.920Z,17.33
2023-01-13T13:11:34.903Z,14.43
2023-01-13T13:15:04.370Z,14.57
2023-01-13T13:18:25.604Z,13.68
2023-01-13T13:21:50.886Z,17.13
2023-01-13T13:25:19.842Z,15.80
2023-01-13T13:28:28.276Z,15.68
2023-01-13T13:31:39.672Z,17.92
2023-01-13T13:34:50.224Z,16.13
2023-01-13T13:38:14.308Z,17.25
2023-01-13T13:41:34.028Z,15.32
2023-01-13T13:44:54.924Z,16.17
2023-01-13T13:48:01.326Z,17.83
2023-01-13T13:51:19.960Z,16.50
2023-01-13T13:54:26.008Z,14.80
2023-01-13T13:57:36.982Z,17.05
2023-01-13T14:00:50.513Z,17.83
2023-01-13T14:04:10.057Z,21.05
2023-01-13T14:07:21.125Z,17.20
2023-01-13T14:10:27.535Z,15.63
2023-01-13T14:13:33.382Z,18.55
2023-01-13T14:16:41.565Z,18.13
2023-01-13T14:19:48.325Z,19.30
2023-01-13T14:22:57.714Z,18.30
2023-01-13T14:26:05.909Z,20.27
2023-01-13T14:29:14.513Z,23.35
2023-01-13T14:32:24.562Z,21.02
2023-01-13T14:35:30.458Z,17.33
2023-01-13T14:38:36.010Z,17.75
2023-01-13T14:41:49.481Z,19.42
2023-01-13T14:44:56.326Z,23.27
2023-01-13T14:48:05.108Z,22.13
2023-01-13T14:51:12.925Z,27.58
2023-01-13T14:54:33.561Z,20.70
2023-01-13T14:57:39.788Z,24.83
2023-01-13T15:00:45.558Z,20.83
2023-01-13T15:03:54.040Z,18.35
2023-01-13T15:07:00.396Z,24.33
2023-01-13T15:10:06.900Z,24.10
2023-01-13T15:13:24.652Z,24.00
2023-01-13T15:16:34.856Z,23.42
2023-01-13T15:19:42.988Z,30.63
2023-01-13T15:22:48.848Z,26.80
2023-01-13T15:25:54.406Z,27.73
2023-01-13T15:29:00.982Z,29.50
2023-01-13T15:32:06.471Z,26.05
2023-01-13T15:35:15.963Z,25.02
2023-01-13T15:38:22.721Z,25.90
2023-01-13T15:41:40.556Z,24.30
2023-01-13T15:44:58.531Z,31.48
2023-01-13T15:48:04.155Z,27.02
2023-01-13T15:51:12.413Z,25.60
2023-01-13T15:54:20.091Z,30.52
2023-01-13T15:57:26.323Z,20.40
2023-01-13T16:00:31.874Z,26.52
2023-01-13T16:03:37.098Z,23.20
2023-01-13T16:06:45.299Z,24.58
2023-01-13T16:09:50.755Z,24.55
2023-01-13T16:12:56.380Z,27.17
2023-01-13T16:16:02.254Z,24.30
2023-01-13T16:19:07.563Z,22.92
2023-01-13T16:22:16.127Z,29.88
2023-01-13T16:25:26.261Z,28.15
2023-01-13T16:28:31.643Z,23.92
2023-01-13T16:31:37.581Z,26.90
2023-01-13T16:34:43.078Z,23.27
2023-01-13T16:37:51.040Z,23.25
2023-01-13T16:41:00.322Z,28.45
2023-01-13T16:44:06.459Z,25.25
2023-01-13T16:47:15.934Z,31.35
2023-01-13T16:50:23.549Z,26.50
2023-01-13T16:53:31.879Z,28.95
2023-01-13T16:59:45.051Z,26.80
2023-01-13T17:02:50.620Z,25.70
2023-01-13T17:05:55.844Z,25.38
2023-01-13T17:09:06.967Z,23.13
2023-01-13T17:12:12.948Z,27.60
2023-01-13T17:15:19.807Z,25.77
2023-01-13T17:18:25.254Z,26.98
2023-01-13T17:21:30.696Z,26.77
2023-01-13T17:24:39.256Z,27.73
2023-01-13T17:27:44.756Z,24.35
2023-01-13T17:30:50.168Z,30.02
2023-01-13T17:33:55.576Z,27.70
2023-01-13T17:37:00.650Z,28.73
2023-01-13T17:40:09.229Z,32.17
2023-01-13T17:43:15.724Z,26.02
2023-01-13T17:46:21.357Z,25.92
2023-01-13T17:49:27.004Z,29.85
2023-01-13T17:52:32.902Z,27.63
2023-01-13T17:55:40.760Z,29.67
2023-01-13T17:58:47.242Z,26.35
2023-01-13T18:01:53.117Z,29.63
2023-01-13T18:04:58.788Z,29.10
2023-01-13T18:08:04.033Z,25.52
2023-01-13T18:11:12.077Z,31.35
2023-01-13T18:14:17.726Z,26.35
2023-01-13T18:17:23.551Z,33.83
2023-01-13T18:20:41.542Z,30.05
2023-01-13T18:23:59.088Z,27.17
2023-01-13T18:27:30.038Z,25.48
2023-01-13T18:30:35.878Z,27.92
2023-01-13T18:33:41.275Z,31.10
2023-01-13T18:36:46.559Z,27.10
2023-01-13T18:39:52.109Z,34.80
2023-01-13T18:43:00.169Z,31.85
2023-01-13T18:46:05.604Z,29.65
2023-01-13T18:49:11.130Z,31.75
2023-01-13T18:52:16.504Z,27.10
2023-01-13T18:55:22.369Z,22.52
2023-01-13T18:58:33.138Z,25.00
2023-01-13T19:01:38.447Z,28.10
2023-01-13T19:04:44.144Z,30.55
2023-01-13T19:07:51.468Z,24.73
2023-01-13T19:10:57.218Z,25.37
2023-01-13T19:14:05.263Z,24.60
2023-01-13T19:17:11.452Z,28.42
2023-01-13T19:20:16.973Z,27.23
2023-01-13T19:23:22.066Z,26.65
2023-01-13T19:26:27.423Z,28.95
2023-01-13T19:29:35.668Z,22.17
2023-01-13T19:32:41.304Z,28.05
2023-01-13T19:35:46.600Z,25.13
2023-01-13T19:38:52.079Z,22.98
2023-01-13T19:42:09.753Z,24.80
2023-01-13T19:45:32.325Z,24.65
2023-01-13T19:48:37.974Z,25.52
2023-01-13T19:51:43.196Z,26.95
2023-01-13T19:54:49.373Z,28.70
2023-01-13T19:57:54.697Z,25.00
2023-01-13T20:01:09.980Z,29.38
2023-01-13T20:04:19.711Z,27.02
2023-01-13T20:07:25.416Z,29.48
2023-01-13T20:10:30.758Z,30.02
2023-01-13T20:13:36.209Z,25.67
2023-01-13T20:16:44.157Z,25.15
2023-01-13T20:19:50.181Z,27.60
2023-01-13T20:22:55.558Z,22.73
2023-01-13T20:26:01.265Z,22.08
2023-01-13T20:29:06.388Z,29.33
2023-01-13T20:32:14.738Z,24.67
2023-01-13T20:35:20.120Z,24.70
2023-01-13T20:38:25.656Z,22.23
2023-01-13T20:41:43.446Z,31.75
2023-01-13T20:44:49.978Z,27.33
2023-01-13T20:47:58.312Z,24.33
2023-01-13T20:51:03.651Z,21.40
2023-01-13T20:54:09.435Z,24.55
2023-01-13T20:57:15.252Z,21.42
2023-01-13T21:00:21.520Z,22.15
2023-01-13T21:03:29.470Z,21.10
2023-01-13T21:06:35.381Z,26.73
2023-01-13T21:09:40.620Z,23.83
2023-01-13T21:12:58.340Z,25.10
2023-01-13T21:16:03.711Z,21.83
2023-01-13T21:19:11.137Z,25.60
2023-01-13T21:22:16.622Z,19.73
2023-01-13T21:25:22.234Z,20.55
2023-01-13T21:28:27.627Z,19.23
2023-01-13T21:31:33.289Z,21.77
2023-01-13T21:34:42.036Z,22.73
2023-01-13T21:37:47.597Z,21.23
2023-01-13T21:40:59.921Z,22.85
2023-01-13T21:44:17.598Z,21.80
2023-01-13T21:47:35.339Z,23.95
2023-01-13T21:50:43.582Z,17.30
2023-01-13T21:53:48.793Z,24.25
2023-01-13T21:56:54.447Z,28.73
2023-01-13T21:59:59.852Z,25.13
2023-01-13T22:06:35.475Z,27.67
2023-01-13T22:12:47.069Z,22.98
2023-01-13T22:15:52.760Z,18.45
2023-01-13T22:18:58.532Z,26.67
2023-01-13T22:22:07.580Z,20.50
2023-01-13T22:25:14.958Z,29.42
2023-01-13T22:28:24.607Z,22.70
2023-01-13T22:31:31.777Z,27.38
2023-01-13T22:34:37.397Z,21.58
2023-01-13T22:37:45.329Z,23.52
2023-01-13T22:40:58.504Z,23.45
2023-01-13T22:44:03.737Z,22.75
2023-01-13T22:47:09.062Z,25.00
2023-01-13T22:50:17.756Z,21.13
2023-01-13T22:53:25.929Z,26.20
2023-01-13T22:59:36.493Z,25.95
2023-01-13T23:02:41.993Z,23.45
2023-01-13T23:05:47.866Z,23.65
2023-01-13T23:08:55.924Z,24.70
2023-01-13T23:12:01.340Z,25.10
2023-01-13T23:15:06.920Z,25.73
2023-01-13T23:18:12.334Z,20.63
2023-01-13T23:21:18.526Z,22.52
2023-01-13T23:24:28.174Z,27.48
2023-01-13T23:27:34.572Z,23.27
2023-01-13T23:30:42.549Z,22.75
2023-01-13T23:33:48.312Z,25.83
2023-01-13T23:36:53.412Z,25.70
2023-01-13T23:40:01.678Z,25.98
2023-01-13T23:43:08.581Z,22.05
2023-01-13T23:46:14.445Z,23.58
2023-01-13T23:49:19.529Z,24.85
2023-01-13T23:52:25.509Z,30.48
2023-01-13T23:55:33.673Z,23.67
2023-01-13T23:58:39.496Z,23.27
